Time;durP1;ratioP1;P1;durP2;ratioP2;P2;SDS_P1;SDS_P2;PMS_P1;PMS_P2;Temp;Humidity;BMP_temperature;BMP_pressure;BME280_temperature;BME280_humidity;BME280_pressure;Samples;Min_cycle;Max_cycle;Signal;HPM_P1;HPM_P2
2020/12/03 00:00:47;;;;;;;17.83;11.96;;;;;;;1.23;84.74;98961.19;2002304;81;20354;-80
2020/12/03 00:04:04;;;;;;;16.72;11.24;;;;;;;1.20;84.58;98958.56;2000935;81;20336;-80
2020/12/03 00:07:06;;;;;;;18.99;10.52;;;;;;;1.18;84.59;98955.09;2001247;81;20215;-80
2020/12/03 00:10:08;;;;;;;17.80;11.36;;;;;;;1.18;84.70;98958.53;2001290;81;20324;-80
2020/12/03 00:13:31;;;;;;;17.63;10.79;;;;;;;1.18;84.70;98948.28;2002746;81;20847;-80
2020/12/03 00:16:34;;;;;;;19.46;11.24;;;;;;;1.20;84.56;98935.53;2001583;81;20390;-80
2020/12/03 00:19:36;;;;;;;18.59;11.45;;;;;;;1.18;84.71;98937.19;2001721;81;20360;-79
2020/12/03 00:22:37;;;;;;;19.80;11.61;;;;;;;1.20;84.74;98930.44;2001413;81;20324;-80
2020/12/03 00:25:39;;;;;;;18.08;11.26;;;;;;;1.23;84.83;98929.63;2001392;81;20350;-80
2020/12/03 00:28:41;;;;;;;17.63;11.27;;;;;;;1.22;84.77;98923.66;2001464;81;20855;-79
2020/12/03 00:31:44;;;;;;;18.95;11.04;;;;;;;1.17;84.78;98910.78;2001664;81;20207;-79
2020/12/03 00:34:45;;;;;;;17.99;11.86;;;;;;;1.20;84.89;98907.41;2044601;70;20344;-71
2020/12/03 00:37:48;;;;;;;17.46;11.00;;;;;;;1.23;84.80;98904.94;2000724;80;20891;-71
2020/12/03 00:40:50;;;;;;;19.63;11.71;;;;;;;1.23;84.50;98904.94;2000638;80;20350;-70
2020/12/03 00:43:51;;;;;;;18.40;11.31;;;;;;;1.23;84.50;98902.38;2001096;81;20221;-71
2020/12/03 00:46:53;;;;;;;19.23;11.24;;;;;;;1.25;84.58;98899.84;2001862;81;20735;-71
2020/12/03 00:49:56;;;;;;;18.80;11.44;;;;;;;1.23;84.61;98886.16;2001242;81;20838;-70
2020/12/03 00:52:58;;;;;;;17.21;11.10;;;;;;;1.24;84.59;98883.66;2011726;81;20308;-82
2020/12/03 00:55:59;;;;;;;16.96;10.90;;;;;;;1.25;84.70;98874.28;2012167;81;20340;-80
2020/12/03 00:59:01;;;;;;;17.44;10.23;;;;;;;1.25;84.65;98879.41;2013397;81;20316;-81
2020/12/03 01:02:06;;;;;;;16.42;11.02;;;;;;;1.21;84.69;98876.78;2012191;81;20362;-81
2020/12/03 01:05:09;;;;;;;15.71;11.30;;;;;;;1.19;84.66;98873.31;2009719;81;20300;-81
2020/12/03 01:08:11;;;;;;;17.24;10.60;;;;;;;1.18;84.81;98876.69;2011282;81;20366;-81
2020/12/03 01:11:13;;;;;;;18.58;11.73;;;;;;;1.22;84.76;98872.53;2010784;81;20316;-80
2020/12/03 01:14:14;;;;;;;15.44;10.38;;;;;;;1.25;84.86;98872.59;2010203;81;20338;-81
2020/12/03 01:17:16;;;;;;;16.09;11.20;;;;;;;1.27;84.68;98859.88;2011355;81;20354;-80
2020/12/03 01:20:21;;;;;;;18.20;11.82;;;;;;;1.27;84.59;98862.44;2010821;81;20325;-81
2020/12/03 01:23:23;;;;;;;20.31;11.48;;;;;;;1.25;84.76;98854.69;2010689;81;20441;-81
2020/12/03 01:26:26;;;;;;;17.45;11.10;;;;;;;1.22;84.69;98859.72;2011591;81;20399;-81
2020/12/03 01:29:27;;;;;;;18.24;11.54;;;;;;;1.18;84.96;98846.03;2009453;81;20321;-81
2020/12/03 01:32:30;;;;;;;16.34;10.96;;;;;;;1.16;85.03;98842.56;2011690;81;20361;-81
2020/12/03 01:35:31;;;;;;;18.58;11.69;;;;;;;1.11;85.19;98831.38;2008218;81;20348;-81
2020/12/03 01:38:33;;;;;;;18.81;11.25;;;;;;;1.16;85.32;98831.47;2010358;81;20235;-81
2020/12/03 01:41:35;;;;;;;18.08;12.14;;;;;;;1.13;85.18;98831.41;2012240;81;20361;-81
2020/12/03 01:44:49;;;;;;;19.65;11.55;;;;;;;1.13;85.51;98819.50;2012896;81;20346;-81
2020/12/03 01:47:50;;;;;;;16.06;10.86;;;;;;;1.13;85.48;98811.81;2010713;80;20342;-81
2020/12/03 01:50:52;;;;;;;17.31;11.54;;;;;;;1.13;85.58;98809.25;2009409;81;20374;-80
2020/12/03 01:53:56;;;;;;;16.48;11.16;;;;;;;1.10;85.75;98803.22;2009935;81;20333;-81
2020/12/03 01:57:05;;;;;;;17.50;11.75;;;;;;;1.09;85.80;98788.72;2011140;81;20334;-81
2020/12/03 02:00:10;;;;;;;17.89;11.24;;;;;;;1.08;85.90;98784.44;2006388;81;20342;-71
2020/12/03 02:03:12;;;;;;;18.37;11.93;;;;;;;1.07;86.05;98783.53;2001393;80;20190;-71
2020/12/03 02:06:25;;;;;;;17.08;11.00;;;;;;;1.08;86.18;98781.88;2001222;81;20207;-71
2020/12/03 02:09:27;;;;;;;18.19;11.13;;;;;;;1.08;86.08;98772.50;2001317;81;20205;-71
2020/12/03 02:12:29;;;;;;;17.88;10.99;;;;;;;1.11;86.26;98774.28;2001642;81;20182;-71
2020/12/03 02:15:31;;;;;;;19.16;11.43;;;;;;;1.14;86.27;98766.66;2001528;80;20316;-71
2020/12/03 02:18:32;;;;;;;16.86;11.46;;;;;;;1.13;86.12;98747.03;2002402;81;20348;-71
2020/12/03 02:21:34;;;;;;;14.90;10.14;;;;;;;1.13;86.20;98744.50;2001819;80;20346;-71
2020/12/03 02:24:39;;;;;;;18.30;11.66;;;;;;;1.13;86.18;98742.78;2001184;81;20348;-71
2020/12/03 02:27:42;;;;;;;18.33;11.41;;;;;;;1.16;86.41;98750.53;2002179;81;20572;-71
2020/12/03 02:30:43;;;;;;;17.14;11.88;;;;;;;1.18;86.24;98746.31;2001933;81;20805;-71
2020/12/03 02:33:45;;;;;;;17.36;10.84;;;;;;;1.23;86.37;98742.97;2002108;80;21214;-71
2020/12/03 02:36:54;;;;;;;18.94;11.44;;;;;;;1.25;86.25;98734.50;2001896;80;20332;-70
2020/12/03 02:39:56;;;;;;;17.35;10.84;;;;;;;1.29;86.16;98723.53;2001624;80;20764;-71
2020/12/03 02:42:57;;;;;;;16.38;10.71;;;;;;;1.32;85.88;98718.50;2001130;80;20370;-71
2020/12/03 02:45:59;;;;;;;17.09;11.75;;;;;;;1.32;85.88;98709.94;2001379;80;20344;-71
2020/12/03 02:49:01;;;;;;;16.76;10.88;;;;;;;1.32;85.93;98710.81;2004587;81;20334;-84
2020/12/03 02:52:03;;;;;;;18.80;11.35;;;;;;;1.33;86.03;98692.09;2010981;81;20364;-82
2020/12/03 02:55:04;;;;;;;15.68;10.30;;;;;;;1.36;86.05;98696.38;2010836;81;20465;-81
2020/12/03 02:58:06;;;;;;;15.07;10.43;;;;;;;1.33;85.93;98691.22;2011123;81;20336;-81
2020/12/03 03:01:07;;;;;;;19.01;11.89;;;;;;;1.33;86.05;98692.09;2011378;81;20350;-81
2020/12/03 03:04:09;;;;;;;17.24;10.81;;;;;;;1.37;85.92;98687.88;2011214;81;20336;-80
2020/12/03 03:07:10;;;;;;;16.06;11.20;;;;;;;1.39;85.75;98684.53;2011633;81;20350;-81
2020/12/03 03:10:14;;;;;;;17.15;10.95;;;;;;;1.39;85.74;98679.41;2013134;81;20373;-82
2020/12/03 03:13:16;;;;;;;15.50;10.65;;;;;;;1.42;85.64;98678.59;2009933;81;20309;-80
2020/12/03 03:16:18;;;;;;;16.96;10.82;;;;;;;1.39;85.36;98674.28;2005926;81;20358;-80
2020/12/03 03:19:20;;;;;;;15.86;10.86;;;;;;;1.37;85.49;98678.53;2011225;80;20334;-80
2020/12/03 03:22:21;;;;;;;17.11;10.70;;;;;;;1.35;85.67;98675.06;2010326;81;20346;-80
2020/12/03 03:25:23;;;;;;;18.16;11.95;;;;;;;1.36;85.80;98683.59;2012002;81;20372;-80
2020/12/03 03:28:25;;;;;;;15.09;10.71;;;;;;;1.35;85.83;98679.31;2009380;81;20414;-81
2020/12/03 03:31:26;;;;;;;14.24;10.30;;;;;;;1.36;85.99;98674.25;2007645;81;20348;-81
2020/12/03 03:34:28;;;;;;;16.65;10.86;;;;;;;1.37;85.98;98670.84;2008965;81;20346;-80
2020/12/03 03:37:32;;;;;;;15.46;10.40;;;;;;;1.40;85.90;98670.03;2009137;80;20368;-80
2020/12/03 03:40:33;;;;;;;18.01;11.23;;;;;;;1.40;85.95;98665.78;2009786;81;20374;-80
2020/12/03 03:43:35;;;;;;;15.89;10.98;;;;;;;1.41;86.01;98651.31;2010006;81;20362;-80
2020/12/03 03:46:36;;;;;;;16.84;11.01;;;;;;;1.45;85.99;98653.13;2009020;81;20324;-81
2020/12/03 03:49:38;;;;;;;14.95;10.54;;;;;;;1.47;85.90;98649.75;2008358;81;20169;-81
2020/12/03 03:52:40;;;;;;;14.69;10.09;;;;;;;1.46;85.88;98650.59;2009942;81;20324;-80
2020/12/03 03:55:41;;;;;;;17.60;10.25;;;;;;;1.44;85.86;98643.72;2009485;81;20346;-80
2020/12/03 03:58:43;;;;;;;16.16;10.52;;;;;;;1.43;85.92;98640.25;2011215;80;20357;-80
2020/12/03 04:01:44;;;;;;;13.76;10.59;;;;;;;1.43;85.92;98640.25;2011007;81;20336;-80
2020/12/03 04:04:47;;;;;;;14.52;10.66;;;;;;;1.47;85.77;98648.88;2010368;81;20336;-81
2020/12/03 04:07:48;;;;;;;13.18;9.60;;;;;;;1.44;85.68;98638.59;2011031;81;20384;-72
2020/12/03 04:10:50;;;;;;;15.81;10.16;;;;;;;1.44;85.64;98647.13;2001708;81;20328;-71
2020/12/03 04:13:52;;;;;;;14.71;10.38;;;;;;;1.44;85.58;98646.28;2000179;81;21185;-71
2020/12/03 04:16:53;;;;;;;17.31;10.95;;;;;;;1.45;85.79;98643.75;2000403;81;21092;-71
2020/12/03 04:19:56;;;;;;;16.41;10.52;;;;;;;1.46;85.72;98642.03;2001098;81;20348;-72
2020/12/03 04:22:58;;;;;;;15.06;10.85;;;;;;;1.52;85.60;98631.94;2001368;81;20344;-71
2020/12/03 04:26:00;;;;;;;17.05;10.89;;;;;;;1.48;85.54;98625.91;2004067;81;20533;-72
2020/12/03 04:29:02;;;;;;;13.74;9.76;;;;;;;1.49;85.67;98619.94;2001020;80;20312;-71
2020/12/03 04:32:04;;;;;;;13.99;10.34;;;;;;;1.53;85.59;98623.41;2001068;80;20386;-72
2020/12/03 04:35:08;;;;;;;15.69;11.02;;;;;;;1.53;85.56;98615.75;2000138;81;20321;-72
2020/12/03 04:38:11;;;;;;;14.85;10.36;;;;;;;1.56;85.66;98604.69;2001679;81;20340;-71
2020/12/03 04:41:12;;;;;;;15.39;10.77;;;;;;;1.59;85.47;98602.19;2001235;81;20367;-72
2020/12/03 04:44:27;;;;;;;14.55;9.56;;;;;;;1.59;85.37;98599.63;2001228;81;20720;-71
2020/12/03 04:48:06;;;;;;;15.65;10.32;;;;;;;1.55;85.38;98596.16;2000786;81;20320;-71
2020/12/03 04:51:25;;;;;;;15.32;10.93;;;;;;;1.54;85.41;98586.75;2001031;81;20324;-71
2020/12/03 04:54:36;;;;;;;15.38;10.74;;;;;;;1.54;85.30;98593.56;2001624;81;20350;-71
2020/12/03 04:57:42;;;;;;;14.57;9.89;;;;;;;1.54;85.17;98580.78;2001540;80;20177;-72
2020/12/03 05:00:52;;;;;;;13.86;10.52;;;;;;;1.55;85.35;98568.03;2000928;80;20340;-71
2020/12/03 05:04:13;;;;;;;17.94;12.19;;;;;;;1.57;85.47;98568.91;2001575;81;20364;-71
2020/12/03 05:07:15;;;;;;;14.15;10.02;;;;;;;1.57;85.47;98568.91;2001312;80;20181;-71
2020/12/03 05:10:38;;;;;;;15.73;10.41;;;;;;;1.54;85.41;98573.97;1999671;80;20356;-72
2020/12/03 05:13:47;;;;;;;13.99;10.55;;;;;;;1.56;85.34;98571.44;1998996;81;20341;-71
2020/12/03 05:16:54;;;;;;;;;;;;;;;1.59;85.32;98571.50;2000190;81;21056;-72
2020/12/03 05:19:55;;;;;;;12.73;9.11;;;;;;;1.58;85.31;98559.53;2015862;80;20087;-72
2020/12/03 05:23:10;;;;;;;14.96;10.69;;;;;;;1.55;85.57;98550.13;2005553;81;20329;-82
2020/12/03 05:26:15;;;;;;;16.86;11.00;;;;;;;1.56;85.65;98546.72;2006708;81;20362;-72
2020/12/03 05:29:17;;;;;;;16.58;10.74;;;;;;;1.59;85.70;98543.34;2001241;80;20723;-71
2020/12/03 05:32:18;;;;;;;13.68;10.82;;;;;;;1.61;85.60;98545.09;2001538;81;20449;-71
2020/12/03 05:35:22;;;;;;;15.41;10.75;;;;;;;1.64;85.40;98541.75;2001113;81;20714;-71
2020/12/03 05:38:26;;;;;;;17.31;11.27;;;;;;;1.62;85.33;98534.06;2001483;80;20748;-72
2020/12/03 05:41:31;;;;;;;15.25;10.50;;;;;;;1.67;85.40;98545.22;2001925;81;21077;-71
2020/12/03 05:44:50;;;;;;;13.85;10.64;;;;;;;1.65;85.17;98538.34;2001247;81;20786;-72
2020/12/03 05:47:52;;;;;;;14.18;10.02;;;;;;;1.70;85.27;98536.72;2001952;80;20364;-71
2020/12/03 05:50:55;;;;;;;15.48;10.75;;;;;;;1.70;85.22;98526.50;2001498;81;20235;-71
2020/12/03 05:54:00;;;;;;;15.79;10.71;;;;;;;1.69;85.30;98535.88;2001546;80;20329;-71
2020/12/03 05:57:02;;;;;;;16.08;11.45;;;;;;;1.69;85.38;98524.78;2000832;81;20719;-72
2020/12/03 06:00:13;;;;;;;14.99;11.09;;;;;;;1.71;85.56;98513.72;1999585;80;20366;-72
2020/12/03 06:03:35;;;;;;;15.02;11.13;;;;;;;1.73;85.58;98512.06;2001799;81;20881;-71
2020/12/03 06:07:23;;;;;;;15.93;10.02;;;;;;;1.74;85.54;98511.22;2001300;81;20304;-71
2020/12/03 06:10:49;;;;;;;13.94;10.91;;;;;;;1.77;85.23;98508.69;2005722;80;20376;-71
2020/12/03 06:14:27;;;;;;;16.19;11.11;;;;;;;1.81;85.15;98509.63;2000185;81;21064;-71
2020/12/03 06:17:45;;;;;;;14.09;9.85;;;;;;;1.80;85.23;98506.22;2002534;80;20337;-71
2020/12/03 06:21:21;;;;;;;14.50;10.53;;;;;;;1.83;85.15;98504.53;2001942;81;20849;-72
2020/12/03 06:24:27;;;;;;;15.56;10.24;;;;;;;1.82;85.16;98496.00;2004811;80;20193;-71
2020/12/03 06:27:55;;;;;;;15.46;10.76;;;;;;;1.83;85.08;98492.59;2001639;81;20835;-71
2020/12/03 06:31:20;;;;;;;13.21;10.16;;;;;;;1.85;85.01;98477.25;2001387;81;20994;-72
2020/12/03 06:34:31;;;;;;;14.20;9.80;;;;;;;1.86;84.86;98486.66;2001384;81;20362;-70
2020/12/03 06:38:05;;;;;;;14.49;10.15;;;;;;;1.83;84.77;98486.63;2001476;81;20378;-71
2020/12/03 06:41:46;;;;;;;14.77;10.98;;;;;;;1.79;84.82;98489.09;2001130;80;20333;-75
2020/12/03 06:45:09;;;;;;;16.84;10.70;;;;;;;1.81;84.87;98482.34;2004078;81;20350;-81
2020/12/03 06:52:32;;;;;;;14.43;10.29;;;;;;;1.83;84.81;98477.25;2018199;70;20435;-81
2020/12/03 07:06:14;;;;;;;15.54;11.19;;;;;;;1.85;84.34;98449.13;2078093;70;20301;-69
2020/12/03 07:09:18;;;;;;;17.46;11.98;;;;;;;1.87;84.61;98442.31;2000822;81;20316;-68
2020/12/03 07:12:42;;;;;;;13.63;10.44;;;;;;;1.86;84.40;98435.47;2001046;81;20353;-69
2020/12/03 07:16:31;;;;;;;16.84;11.16;;;;;;;1.82;84.19;98429.47;2001110;81;20301;-71
2020/12/03 07:19:47;;;;;;;15.05;10.70;;;;;;;1.88;84.33;98426.97;2000865;80;20532;-68
2020/12/03 07:22:56;;;;;;;15.82;10.61;;;;;;;1.87;83.89;98415.03;2001740;81;20350;-69
2020/12/03 07:26:02;;;;;;;;;;;;;;;1.87;83.99;98420.13;2001216;81;20725;-70
2020/12/03 07:29:18;;;;;;;17.25;10.26;;;;;;;1.79;83.87;98414.88;2000674;81;20095;-69
2020/12/03 07:33:08;;;;;;;14.70;9.89;;;;;;;1.81;84.21;98412.38;1980232;82;20336;-70
2020/12/03 07:36:31;;;;;;;16.59;10.88;;;;;;;1.80;84.07;98403.84;1979187;82;20404;-69
2020/12/03 07:39:35;;;;;;;15.79;10.60;;;;;;;1.83;84.27;98389.38;1980515;82;20341;-70
2020/12/03 07:42:37;;;;;;;16.67;10.51;;;;;;;1.84;84.30;98381.72;1979904;82;20341;-70
2020/12/03 07:45:44;;;;;;;16.69;11.44;;;;;;;1.81;84.17;98372.28;1979876;82;20802;-71
2020/12/03 07:48:46;;;;;;;18.30;12.02;;;;;;;1.85;84.29;98365.50;1983551;81;20333;-70
2020/12/03 07:52:26;;;;;;;18.02;12.10;;;;;;;1.85;84.29;98373.19;1980162;82;20366;-70
2020/12/03 07:55:29;;;;;;;16.64;11.81;;;;;;;1.88;84.39;98357.88;1980312;82;20350;-71
2020/12/03 07:58:42;;;;;;;17.29;11.56;;;;;;;1.89;84.35;98361.28;1980032;82;20348;-70
2020/12/03 08:01:43;;;;;;;18.10;12.00;;;;;;;1.91;84.38;98357.06;1980167;81;20545;-70
2020/12/03 08:04:45;;;;;;;16.20;10.96;;;;;;;1.92;84.09;98351.94;1980486;81;20968;-70
2020/12/03 08:07:47;;;;;;;14.99;10.93;;;;;;;1.96;84.07;98353.69;1979712;82;20341;-70
2020/12/03 08:10:53;;;;;;;15.23;11.06;;;;;;;1.92;83.89;98356.22;1979972;82;20726;-69
2020/12/03 08:13:57;;;;;;;15.30;10.52;;;;;;;1.92;83.91;98348.53;1980139;81;20321;-70
2020/12/03 08:16:59;;;;;;;16.26;11.09;;;;;;;1.95;83.90;98343.44;1979893;82;20317;-71
2020/12/03 08:20:04;;;;;;;16.34;11.55;;;;;;;2.00;84.05;98329.03;1979756;82;20377;-70
2020/12/03 08:23:11;;;;;;;15.49;10.76;;;;;;;2.07;84.08;98330.81;1980210;82;20952;-70
2020/12/03 08:26:13;;;;;;;16.44;11.21;;;;;;;2.11;84.05;98325.72;1979436;82;20372;-70
2020/12/03 08:29:33;;;;;;;14.27;10.54;;;;;;;2.16;84.04;98337.75;1991071;81;20787;-70
2020/12/03 08:32:58;;;;;;;14.31;10.81;;;;;;;2.18;83.97;98336.94;2001049;81;20716;-70
2020/12/03 08:36:06;;;;;;;14.59;10.30;;;;;;;2.20;83.60;98347.19;2001452;81;20923;-69
2020/12/03 08:39:09;;;;;;;15.68;10.32;;;;;;;2.21;83.56;98344.63;2001747;81;20374;-69
2020/12/03 08:42:11;;;;;;;15.98;10.68;;;;;;;2.24;83.56;98348.94;2001365;80;20317;-70
2020/12/03 08:45:15;;;;;;;14.54;10.31;;;;;;;2.27;83.63;98348.97;2009585;81;20374;-79
2020/12/03 08:48:23;;;;;;;14.48;10.66;;;;;;;2.28;83.54;98343.00;2009213;70;20381;-77
2020/12/03 08:51:25;;;;;;;13.56;10.66;;;;;;;2.35;83.54;98337.13;2004223;81;20332;-79
2020/12/03 08:54:29;;;;;;;16.48;11.14;;;;;;;2.38;83.61;98335.44;2005929;81;20197;-79
2020/12/03 08:57:35;;;;;;;13.48;10.43;;;;;;;2.40;83.45;98332.91;2004420;81;20385;-81
2020/12/03 09:00:42;;;;;;;13.66;9.98;;;;;;;2.45;83.29;98331.22;2007305;81;20333;-80
2020/12/03 09:03:45;;;;;;;11.79;9.84;;;;;;;2.47;83.12;98328.69;2007447;81;20350;-83
2020/12/03 09:06:50;;;;;;;14.82;10.54;;;;;;;2.51;83.14;98321.03;2005101;81;20321;-81
2020/12/03 09:09:52;;;;;;;13.11;10.24;;;;;;;2.59;83.00;98319.44;2004753;81;20401;-80
2020/12/03 09:12:54;;;;;;;12.44;9.01;;;;;;;2.61;82.71;98314.31;2004842;81;20391;-80
2020/12/03 09:15:57;;;;;;;14.39;10.45;;;;;;;2.67;82.59;98319.50;2005838;81;20438;-80
2020/12/03 09:19:23;;;;;;;13.69;9.11;;;;;;;2.75;82.81;98322.16;2008334;81;20312;-81
2020/12/03 09:22:25;;;;;;;14.24;9.45;;;;;;;2.73;82.15;98315.31;2008568;81;20321;-81
2020/12/03 09:25:27;;;;;;;13.06;9.16;;;;;;;2.77;82.14;98307.63;2008641;81;20324;-81
2020/12/03 09:28:30;;;;;;;13.01;9.31;;;;;;;2.77;82.03;98321.31;2009066;81;20388;-84
2020/12/03 09:31:35;;;;;;;13.09;8.93;;;;;;;2.67;81.78;98299.84;2006179;81;20329;-81
2020/12/03 09:34:39;;;;;;;12.46;9.40;;;;;;;2.69;82.17;98294.72;2003533;80;20324;-80
2020/12/03 09:37:40;;;;;;;12.20;8.86;;;;;;;2.65;81.89;98295.56;2008059;81;20459;-81
2020/12/03 09:40:47;;;;;;;12.85;9.21;;;;;;;2.65;82.01;98285.31;2008750;81;20313;-81
2020/12/03 09:43:53;;;;;;;11.02;8.63;;;;;;;2.66;82.23;98281.91;2006503;81;20387;-81
2020/12/03 09:47:00;;;;;;;12.24;8.86;;;;;;;2.66;82.22;98275.06;2006504;81;20350;-80
2020/12/03 09:50:02;;;;;;;10.30;8.20;;;;;;;2.69;82.26;98256.28;2010649;81;20336;-81
2020/12/03 09:53:05;;;;;;;13.19;9.32;;;;;;;2.69;82.24;98249.50;2009878;81;20328;-82
2020/12/03 09:56:08;;;;;;;11.36;8.89;;;;;;;2.73;82.52;98235.00;2008853;81;20320;-81
2020/12/03 09:59:12;;;;;;;12.09;9.31;;;;;;;2.75;82.56;98235.88;2009594;81;20333;-81
2020/12/03 10:02:14;;;;;;;14.09;8.48;;;;;;;2.78;82.63;98237.59;2008030;81;20735;-81
2020/12/03 10:12:29;;;;;;;11.14;7.78;;;;;;;2.90;82.64;98189.84;2027983;70;20581;-81
2020/12/03 10:19:17;;;;;;;9.48;7.88;;;;;;;2.90;82.54;98178.72;2010861;70;20387;-83
2020/12/03 10:26:03;;;;;;;9.88;7.54;;;;;;;3.00;82.14;98186.47;2019211;70;20660;-81
2020/12/03 10:29:24;;;;;;;8.96;7.26;;;;;;;3.04;81.99;98169.38;2012640;80;20301;-83
2020/12/03 10:32:27;;;;;;;10.00;7.51;;;;;;;3.14;82.11;98167.75;2011695;80;20396;-82
2020/12/03 10:35:31;;;;;;;10.68;8.31;;;;;;;3.19;82.12;98174.59;2011552;81;20174;-79
2020/12/03 10:38:44;;;;;;;10.96;7.05;;;;;;;3.18;81.48;98187.44;2007797;81;20335;-80
2020/12/03 10:41:53;;;;;;;8.75;6.29;;;;;;;3.18;81.48;98180.59;2007107;81;20348;-80
2020/12/03 10:45:06;;;;;;;9.13;6.74;;;;;;;3.18;81.40;98161.78;2006088;81;20427;-80
2020/12/03 10:48:17;;;;;;;8.07;6.47;;;;;;;3.17;81.58;98153.22;2006682;81;20174;-81
2020/12/03 10:51:22;;;;;;;9.29;7.04;;;;;;;3.21;81.65;98144.69;2012528;81;20354;-81
2020/12/03 10:54:23;;;;;;;8.95;6.47;;;;;;;3.25;81.77;98125.94;2013899;81;20353;-82
2020/12/03 10:57:30;;;;;;;8.32;6.43;;;;;;;3.34;81.77;98123.38;2013034;81;20316;-79
2020/12/03 11:00:32;;;;;;;8.15;6.32;;;;;;;3.39;81.45;98112.28;2010922;81;20334;-82
2020/12/03 11:03:37;;;;;;;7.69;6.01;;;;;;;3.42;81.58;98100.34;2010867;81;20352;-79
2020/12/03 11:06:38;;;;;;;7.38;5.97;;;;;;;3.43;81.55;98098.63;2001044;81;20346;-81
2020/12/03 11:09:41;;;;;;;7.61;6.07;;;;;;;3.41;81.26;98085.78;2004690;81;20362;-81
2020/12/03 11:12:44;;;;;;;7.34;6.53;;;;;;;3.41;81.28;98080.66;2014363;81;20360;-84
2020/12/03 11:15:48;;;;;;;7.71;5.75;;;;;;;3.43;81.39;98075.53;2012941;81;20333;-83
2020/12/03 11:18:54;;;;;;;7.93;6.16;;;;;;;3.44;81.26;98061.84;2014185;81;20312;-81
2020/12/03 11:22:11;;;;;;;7.34;5.32;;;;;;;3.45;81.31;98056.72;2009014;81;20325;-80
2020/12/03 11:25:13;;;;;;;7.70;5.18;;;;;;;3.51;81.47;98055.88;2007936;81;20362;-80
2020/12/03 11:28:36;;;;;;;6.93;5.34;;;;;;;3.47;81.17;98046.47;2001071;81;20877;-70
2020/12/03 11:31:39;;;;;;;7.19;5.43;;;;;;;3.53;81.35;98041.31;2004443;80;20361;-80
2020/12/03 11:34:41;;;;;;;7.44;6.40;;;;;;;3.59;81.59;98028.50;2010721;80;20316;-83
2020/12/03 11:37:42;;;;;;;8.91;6.30;;;;;;;3.66;81.59;98013.97;2005665;80;20340;-81
2020/12/03 11:40:53;;;;;;;7.36;6.13;;;;;;;3.72;81.64;98009.69;2011577;81;20357;-84
2020/12/03 11:54:53;;;;;;;7.22;5.40;;;;;;;3.83;80.77;97973.75;2035293;69;20331;-81
2020/12/03 11:58:12;;;;;;;6.49;5.15;;;;;;;3.85;81.14;97961.78;2079482;69;20360;-82
2020/12/03 12:01:14;;;;;;;;;;;;;;;3.90;81.10;97955.78;2036794;80;20343;-83
2020/12/03 12:04:18;;;;;;;6.59;4.66;;;;;;;3.95;80.94;97945.53;2031400;80;20141;-83
2020/12/03 12:07:27;;;;;;;6.40;5.29;;;;;;;3.99;80.63;97941.22;2030914;80;20216;-71
2020/12/03 12:10:35;;;;;;;7.88;5.32;;;;;;;3.99;80.47;97931.81;2036451;80;20296;-82
2020/12/03 12:13:37;;;;;;;8.09;6.49;;;;;;;4.04;80.58;97924.94;2032254;80;20336;-83
2020/12/03 12:16:38;;;;;;;6.68;5.09;;;;;;;4.08;80.30;97906.09;2031919;80;20316;-82
2020/12/03 12:19:42;;;;;;;9.94;5.44;;;;;;;4.10;80.13;97901.81;2036729;80;20345;-83
2020/12/03 12:22:44;;;;;;;7.35;4.70;;;;;;;4.17;80.25;97884.69;2036676;80;20430;-82
2020/12/03 12:25:47;;;;;;;6.24;4.93;;;;;;;4.27;80.37;97877.78;2032345;80;20328;-82
2020/12/03 12:28:48;;;;;;;7.01;5.53;;;;;;;4.30;79.99;97880.31;2032357;80;20533;-71
2020/12/03 12:31:50;;;;;;;5.71;4.55;;;;;;;4.29;79.93;97864.06;2018009;80;20351;-71
2020/12/03 12:34:52;;;;;;;6.43;4.94;;;;;;;4.32;79.83;97868.38;2022256;80;20329;-83
2020/12/03 12:37:54;;;;;;;6.90;5.18;;;;;;;4.33;80.02;97857.22;2031018;80;20351;-84
2020/12/03 12:40:56;;;;;;;7.78;4.99;;;;;;;4.32;80.08;97855.50;2035367;80;20422;-83
2020/12/03 12:43:58;;;;;;;6.05;5.15;;;;;;;4.32;80.41;97840.09;2033010;80;20327;-83
2020/12/03 12:47:01;;;;;;;6.51;4.91;;;;;;;4.31;80.41;97833.22;2032674;80;20296;-83
2020/12/03 12:50:03;;;;;;;6.76;5.29;;;;;;;4.30;80.19;97826.38;2064624;69;20312;-82
2020/12/03 12:53:04;;;;;;;6.64;5.53;;;;;;;4.30;80.56;97816.09;2034273;80;20430;-82
2020/12/03 12:56:09;;;;;;;6.15;4.90;;;;;;;4.29;81.04;97802.41;2031826;80;20320;-82
2020/12/03 12:59:11;;;;;;;5.80;4.74;;;;;;;4.25;81.52;97801.56;2032263;80;20513;-82
2020/12/03 13:02:13;;;;;;;6.43;5.14;;;;;;;4.23;81.71;97797.31;2033917;80;20300;-82
2020/12/03 13:05:18;;;;;;;8.73;5.78;;;;;;;4.22;81.92;97795.59;2035457;80;20320;-84
2020/12/03 13:08:31;;;;;;;6.35;4.80;;;;;;;4.17;82.02;97787.94;2053306;69;20365;-82
2020/12/03 13:11:39;;;;;;;5.74;4.93;;;;;;;4.18;82.38;97787.06;2030925;80;20337;-81
2020/12/03 13:44:42;;;;;;;6.30;4.86;;;;;;;4.13;81.76;97711.75;2039512;69;20365;-79
2020/12/03 13:47:44;;;;;;;6.36;4.44;;;;;;;4.13;81.89;97713.44;2022152;80;20986;-70
2020/12/03 13:50:46;;;;;;;4.90;4.32;;;;;;;4.12;81.55;97709.16;2021007;80;20331;-71
2020/12/03 13:57:01;;;;;;;4.09;3.69;;;;;;;4.12;81.36;97688.63;2061210;69;20441;-82
2020/12/03 14:03:13;;;;;;;5.32;4.24;;;;;;;4.16;81.59;97682.63;2056790;69;20527;-85
2020/12/03 14:06:16;;;;;;;4.74;4.24;;;;;;;4.16;81.47;97678.34;2038025;80;20308;-84
2020/12/03 14:09:19;;;;;;;4.85;3.74;;;;;;;4.17;81.18;97668.91;2040880;80;20382;-84
2020/12/03 14:12:21;;;;;;;4.43;4.01;;;;;;;4.17;81.30;97663.78;2036164;80;20264;-83
2020/12/03 14:15:23;;;;;;;3.80;3.42;;;;;;;4.18;81.03;97657.78;2037192;80;20343;-84
2020/12/03 14:18:24;;;;;;;5.24;4.14;;;;;;;4.19;80.97;97652.63;2033595;80;20308;-83
2020/12/03 14:21:26;;;;;;;4.32;3.70;;;;;;;4.21;80.97;97644.91;2037965;80;20332;-84
2020/12/03 14:24:28;;;;;;;3.94;3.50;;;;;;;4.23;81.12;97643.19;2037469;80;20273;-84
2020/12/03 14:27:29;;;;;;;5.50;4.18;;;;;;;4.22;80.96;97637.19;2038593;80;20312;-83
2020/12/03 14:30:31;;;;;;;3.88;3.45;;;;;;;4.24;80.71;97634.63;2034196;80;20312;-85
2020/12/03 14:33:33;;;;;;;4.04;3.66;;;;;;;4.22;80.24;97623.50;2035219;80;20369;-85
2020/12/03 14:36:34;;;;;;;4.26;3.70;;;;;;;4.22;80.32;97619.22;2037864;80;20317;-86
2020/12/03 14:39:36;;;;;;;4.38;3.39;;;;;;;4.20;80.44;97618.38;2035024;80;20327;-84
2020/12/03 14:42:38;;;;;;;4.07;3.30;;;;;;;4.20;80.40;97609.81;2035891;80;20327;-83
2020/12/03 14:45:40;;;;;;;3.78;3.36;;;;;;;4.21;80.19;97606.38;2034207;80;20320;-84
2020/12/03 14:48:42;;;;;;;3.94;3.47;;;;;;;4.21;80.19;97598.69;2039030;80;20337;-84
2020/12/03 14:51:53;;;;;;;4.99;3.58;;;;;;;4.20;80.24;97597.81;2034656;80;20292;-85
2020/12/03 14:54:55;;;;;;;3.61;3.31;;;;;;;4.21;80.37;97593.53;2034554;80;20330;-84
2020/12/03 14:57:58;;;;;;;3.28;2.97;;;;;;;4.22;80.34;97590.97;2034339;80;20324;-84
2020/12/03 15:01:02;;;;;;;3.42;2.71;;;;;;;4.26;80.42;97584.06;2033684;80;20339;-84
2020/12/03 15:04:04;;;;;;;3.70;3.22;;;;;;;4.25;80.14;97579.81;2033815;80;20332;-84
2020/12/03 15:07:05;;;;;;;3.28;2.97;;;;;;;4.24;80.14;97575.53;2036615;80;20308;-83
2020/12/03 15:10:33;;;;;;;3.85;3.04;;;;;;;4.22;80.28;97564.41;2037650;80;20319;-83
2020/12/03 15:13:30;;;;;;;3.53;2.89;;;;;;;4.24;80.38;97550.69;2024226;80;20369;-82
2020/12/03 15:16:32;;;;;;;3.45;2.67;;;;;;;4.23;80.21;97537.88;2034399;80;20337;-83
2020/12/03 15:19:35;;;;;;;3.35;2.50;;;;;;;4.24;79.99;97534.44;2035311;80;20369;-83
2020/12/03 15:22:36;;;;;;;3.21;2.91;;;;;;;4.24;79.91;97534.44;2030511;80;20354;-72
2020/12/03 15:25:38;;;;;;;2.86;2.63;;;;;;;4.25;80.13;97520.72;2020126;80;20839;-72
2020/12/03 15:28:40;;;;;;;3.35;3.00;;;;;;;4.28;80.06;97512.97;2020388;80;20353;-71
2020/12/03 15:31:41;;;;;;;2.88;2.59;;;;;;;4.29;79.91;97508.69;2021830;80;20780;-82
2020/12/03 15:34:43;;;;;;;3.00;2.63;;;;;;;4.28;79.91;97500.13;2037669;80;20343;-84
2020/12/03 15:37:44;;;;;;;4.79;2.96;;;;;;;4.30;79.96;97503.53;2037608;80;20332;-84
2020/12/03 15:40:46;;;;;;;3.83;3.49;;;;;;;4.26;79.84;97494.16;2041405;80;20311;-84
2020/12/03 15:43:47;;;;;;;3.83;3.01;;;;;;;4.25;79.67;97490.75;2036432;80;20315;-84
2020/12/03 15:46:50;;;;;;;2.95;2.69;;;;;;;4.27;79.76;97492.44;2084627;69;20299;-83
2020/12/03 15:49:53;;;;;;;3.00;2.67;;;;;;;4.28;79.81;97486.44;2041382;79;20347;-82